sensor_id;sensor_type;location;lat;lon;timestamp;P1;durP1;ratioP1;P2;durP2;ratioP2
18076;SDS011;9165;45.714;11.362;2023-04-24T00:00:34;22.10;;;16.97;;
18076;SDS011;9165;45.714;11.362;2023-04-24T00:03:03;22.20;;;15.73;;
18076;SDS011;9165;45.714;11.362;2023-04-24T00:05:30;24.60;;;16.50;;
18076;SDS011;9165;45.714;11.362;2023-04-24T00:07:58;26.77;;;18.10;;
18076;SDS011;9165;45.714;11.362;2023-04-24T00:10:25;23.93;;;17.70;;
18076;SDS011;9165;45.714;11.362;2023-04-24T00:12:51;29.07;;;20.90;;
18076;SDS011;9165;45.714;11.362;2023-04-24T00:15:19;27.03;;;19.30;;
18076;SDS011;9165;45.714;11.362;2023-04-24T00:17:46;26.30;;;17.27;;
18076;SDS011;9165;45.714;11.362;2023-04-24T00:20:12;26.30;;;20.20;;
18076;SDS011;9165;45.714;11.362;2023-04-24T00:22:40;26.17;;;17.83;;
18076;SDS011;9165;45.714;11.362;2023-04-24T00:25:07;27.77;;;17.30;;
18076;SDS011;9165;45.714;11.362;2023-04-24T00:27:33;31.43;;;22.17;;
18076;SDS011;9165;45.714;11.362;2023-04-24T00:30:02;34.10;;;22.60;;
18076;SDS011;9165;45.714;11.362;2023-04-24T00:32:31;28.00;;;21.43;;
18076;SDS011;9165;45.714;11.362;2023-04-24T00:34:57;27.13;;;21.00;;
18076;SDS011;9165;45.714;11.362;2023-04-24T00:37:24;27.27;;;19.37;;
18076;SDS011;9165;45.714;11.362;2023-04-24T00:39:50;22.93;;;17.33;;
18076;SDS011;9165;45.714;11.362;2023-04-24T00:42:17;27.47;;;20.53;;
18076;SDS011;9165;45.714;11.362;2023-04-24T00:44:43;24.27;;;19.40;;
18076;SDS011;9165;45.714;11.362;2023-04-24T00:47:10;25.67;;;20.23;;
18076;SDS011;9165;45.714;11.362;2023-04-24T00:49:38;29.80;;;21.13;;
18076;SDS011;9165;45.714;11.362;2023-04-24T00:52:05;35.47;;;21.33;;
18076;SDS011;9165;45.714;11.362;2023-04-24T00:54:33;27.17;;;20.63;;
18076;SDS011;9165;45.714;11.362;2023-04-24T00:57:00;26.97;;;19.03;;
18076;SDS011;9165;45.714;11.362;2023-04-24T00:59:28;26.90;;;21.23;;
18076;SDS011;9165;45.714;11.362;2023-04-24T01:01:55;36.70;;;24.80;;
18076;SDS011;9165;45.714;11.362;2023-04-24T01:04:22;36.97;;;22.93;;
18076;SDS011;9165;45.714;11.362;2023-04-24T01:06:50;29.83;;;21.47;;
18076;SDS011;9165;45.714;11.362;2023-04-24T01:09:16;28.50;;;20.50;;
18076;SDS011;9165;45.714;11.362;2023-04-24T01:11:44;29.23;;;19.97;;
18076;SDS011;9165;45.714;11.362;2023-04-24T01:14:10;27.83;;;20.30;;
18076;SDS011;9165;45.714;11.362;2023-04-24T01:16:37;27.77;;;19.67;;
18076;SDS011;9165;45.714;11.362;2023-04-24T01:19:05;26.03;;;19.23;;
18076;SDS011;9165;45.714;11.362;2023-04-24T01:21:32;29.90;;;21.07;;
18076;SDS011;9165;45.714;11.362;2023-04-24T01:24:03;26.00;;;18.17;;
18076;SDS011;9165;45.714;11.362;2023-04-24T01:26:30;29.17;;;18.73;;
18076;SDS011;9165;45.714;11.362;2023-04-24T01:28:57;23.10;;;17.47;;
18076;SDS011;9165;45.714;11.362;2023-04-24T01:31:23;25.97;;;18.30;;
18076;SDS011;9165;45.714;11.362;2023-04-24T01:33:50;23.80;;;17.83;;
18076;SDS011;9165;45.714;11.362;2023-04-24T01:36:17;25.37;;;16.37;;
18076;SDS011;9165;45.714;11.362;2023-04-24T01:38:44;28.43;;;18.07;;
18076;SDS011;9165;45.714;11.362;2023-04-24T01:41:12;23.40;;;17.13;;
18076;SDS011;9165;45.714;11.362;2023-04-24T01:43:39;24.60;;;16.30;;
18076;SDS011;9165;45.714;11.362;2023-04-24T01:46:05;21.73;;;16.27;;
18076;SDS011;9165;45.714;11.362;2023-04-24T01:48:32;21.30;;;15.93;;
18076;SDS011;9165;45.714;11.362;2023-04-24T01:51:00;21.27;;;15.63;;
18076;SDS011;9165;45.714;11.362;2023-04-24T01:53:26;21.27;;;15.17;;
18076;SDS011;9165;45.714;11.362;2023-04-24T01:55:53;22.53;;;15.93;;
18076;SDS011;9165;45.714;11.362;2023-04-24T01:58:21;20.20;;;15.03;;
18076;SDS011;9165;45.714;11.362;2023-04-24T02:00:47;19.20;;;15.90;;
18076;SDS011;9165;45.714;11.362;2023-04-24T02:03:14;25.07;;;15.23;;
18076;SDS011;9165;45.714;11.362;2023-04-24T02:05:43;19.43;;;14.93;;
18076;SDS011;9165;45.714;11.362;2023-04-24T02:08:09;18.87;;;14.47;;
18076;SDS011;9165;45.714;11.362;2023-04-24T02:10:36;20.43;;;15.23;;
18076;SDS011;9165;45.714;11.362;2023-04-24T02:13:03;19.13;;;12.83;;
18076;SDS011;9165;45.714;11.362;2023-04-24T02:15:31;21.00;;;14.90;;
18076;SDS011;9165;45.714;11.362;2023-04-24T02:17:58;21.30;;;14.53;;
18076;SDS011;9165;45.714;11.362;2023-04-24T02:20:25;19.87;;;13.73;;
18076;SDS011;9165;45.714;11.362;2023-04-24T02:22:51;18.77;;;13.80;;
18076;SDS011;9165;45.714;11.362;2023-04-24T02:25:18;18.37;;;13.67;;
18076;SDS011;9165;45.714;11.362;2023-04-24T02:27:45;20.63;;;13.53;;
18076;SDS011;9165;45.714;11.362;2023-04-24T02:30:11;19.00;;;13.83;;
18076;SDS011;9165;45.714;11.362;2023-04-24T02:32:40;17.17;;;13.00;;
18076;SDS011;9165;45.714;11.362;2023-04-24T02:35:06;16.03;;;12.50;;
18076;SDS011;9165;45.714;11.362;2023-04-24T02:37:33;26.60;;;13.50;;
18076;SDS011;9165;45.714;11.362;2023-04-24T02:40:00;16.53;;;13.30;;
18076;SDS011;9165;45.714;11.362;2023-04-24T02:42:26;19.70;;;13.43;;
18076;SDS011;9165;45.714;11.362;2023-04-24T02:44:53;17.63;;;12.97;;
18076;SDS011;9165;45.714;11.362;2023-04-24T02:47:19;19.23;;;12.90;;
18076;SDS011;9165;45.714;11.362;2023-04-24T02:49:49;17.13;;;12.53;;
18076;SDS011;9165;45.714;11.362;2023-04-24T02:52:15;21.27;;;14.03;;
18076;SDS011;9165;45.714;11.362;2023-04-24T02:54:43;19.17;;;12.63;;
18076;SDS011;9165;45.714;11.362;2023-04-24T02:57:09;16.87;;;12.97;;
18076;SDS011;9165;45.714;11.362;2023-04-24T02:59:36;18.83;;;11.67;;
18076;SDS011;9165;45.714;11.362;2023-04-24T03:02:03;19.70;;;14.57;;
18076;SDS011;9165;45.714;11.362;2023-04-24T03:04:29;22.17;;;12.60;;
18076;SDS011;9165;45.714;11.362;2023-04-24T03:06:58;19.07;;;12.77;;
18076;SDS011;9165;45.714;11.362;2023-04-24T03:09:26;16.40;;;12.30;;
18076;SDS011;9165;45.714;11.362;2023-04-24T03:11:52;20.67;;;12.00;;
18076;SDS011;9165;45.714;11.362;2023-04-24T03:14:20;20.93;;;13.33;;
18076;SDS011;9165;45.714;11.362;2023-04-24T03:16:47;18.50;;;11.90;;
18076;SDS011;9165;45.714;11.362;2023-04-24T03:19:13;13.23;;;10.37;;
18076;SDS011;9165;45.714;11.362;2023-04-24T03:21:40;12.90;;;9.97;;
18076;SDS011;9165;45.714;11.362;2023-04-24T03:24:08;14.43;;;9.87;;
18076;SDS011;9165;45.714;11.362;2023-04-24T03:26:35;16.17;;;9.23;;
18076;SDS011;9165;45.714;11.362;2023-04-24T03:29:02;11.53;;;9.43;;
18076;SDS011;9165;45.714;11.362;2023-04-24T03:31:28;12.90;;;8.80;;
18076;SDS011;9165;45.714;11.362;2023-04-24T03:33:55;15.47;;;8.93;;
18076;SDS011;9165;45.714;11.362;2023-04-24T03:36:22;12.83;;;9.27;;
18076;SDS011;9165;45.714;11.362;2023-04-24T03:38:48;14.73;;;9.70;;
18076;SDS011;9165;45.714;11.362;2023-04-24T03:41:17;12.30;;;8.93;;
18076;SDS011;9165;45.714;11.362;2023-04-24T03:43:44;14.53;;;9.93;;
18076;SDS011;9165;45.714;11.362;2023-04-24T03:46:11;12.77;;;9.63;;
18076;SDS011;9165;45.714;11.362;2023-04-24T03:48:37;14.27;;;10.37;;
18076;SDS011;9165;45.714;11.362;2023-04-24T03:51:06;19.13;;;10.23;;
18076;SDS011;9165;45.714;11.362;2023-04-24T03:53:33;12.13;;;9.77;;
18076;SDS011;9165;45.714;11.362;2023-04-24T03:56:00;13.73;;;9.37;;
18076;SDS011;9165;45.714;11.362;2023-04-24T03:58:28;16.47;;;9.67;;
18076;SDS011;9165;45.714;11.362;2023-04-24T04:00:55;14.30;;;9.43;;
18076;SDS011;9165;45.714;11.362;2023-04-24T04:03:23;15.53;;;9.67;;
18076;SDS011;9165;45.714;11.362;2023-04-24T04:05:52;13.73;;;9.63;;
18076;SDS011;9165;45.714;11.362;2023-04-24T04:08:35;12.53;;;9.40;;
18076;SDS011;9165;45.714;11.362;2023-04-24T04:11:01;10.97;;;8.57;;
18076;SDS011;9165;45.714;11.362;2023-04-24T04:13:32;12.30;;;9.57;;
18076;SDS011;9165;45.714;11.362;2023-04-24T04:16:01;13.77;;;10.07;;
18076;SDS011;9165;45.714;11.362;2023-04-24T04:18:30;13.47;;;9.20;;
18076;SDS011;9165;45.714;11.362;2023-04-24T04:20:56;14.73;;;10.00;;
18076;SDS011;9165;45.714;11.362;2023-04-24T04:25:48;13.77;;;9.03;;
18076;SDS011;9165;45.714;11.362;2023-04-24T04:28:15;14.47;;;9.13;;
18076;SDS011;9165;45.714;11.362;2023-04-24T04:30:46;12.13;;;8.47;;
18076;SDS011;9165;45.714;11.362;2023-04-24T04:33:12;12.73;;;9.10;;
18076;SDS011;9165;45.714;11.362;2023-04-24T04:35:39;14.23;;;9.10;;
18076;SDS011;9165;45.714;11.362;2023-04-24T04:38:07;13.37;;;8.77;;
18076;SDS011;9165;45.714;11.362;2023-04-24T04:40:40;15.13;;;8.37;;
18076;SDS011;9165;45.714;11.362;2023-04-24T04:43:07;12.57;;;8.40;;
18076;SDS011;9165;45.714;11.362;2023-04-24T04:45:35;15.30;;;9.13;;
18076;SDS011;9165;45.714;11.362;2023-04-24T04:48:03;12.27;;;8.70;;
18076;SDS011;9165;45.714;11.362;2023-04-24T04:50:48;12.50;;;9.20;;
18076;SDS011;9165;45.714;11.362;2023-04-24T04:53:14;10.57;;;8.40;;
18076;SDS011;9165;45.714;11.362;2023-04-24T04:55:41;12.97;;;9.33;;
18076;SDS011;9165;45.714;11.362;2023-04-24T04:58:08;12.50;;;8.87;;
18076;SDS011;9165;45.714;11.362;2023-04-24T05:00:34;15.47;;;9.10;;
18076;SDS011;9165;45.714;11.362;2023-04-24T05:03:04;13.70;;;10.00;;
18076;SDS011;9165;45.714;11.362;2023-04-24T05:05:31;11.67;;;9.17;;
18076;SDS011;9165;45.714;11.362;2023-04-24T05:07:57;13.60;;;9.00;;
18076;SDS011;9165;45.714;11.362;2023-04-24T05:10:24;13.10;;;8.77;;
18076;SDS011;9165;45.714;11.362;2023-04-24T05:12:50;19.87;;;8.57;;
18076;SDS011;9165;45.714;11.362;2023-04-24T05:15:19;13.73;;;8.90;;
18076;SDS011;9165;45.714;11.362;2023-04-24T05:17:46;15.23;;;8.70;;
18076;SDS011;9165;45.714;11.362;2023-04-24T05:20:14;12.73;;;10.00;;
18076;SDS011;9165;45.714;11.362;2023-04-24T05:22:40;12.40;;;9.63;;
18076;SDS011;9165;45.714;11.362;2023-04-24T05:25:07;11.57;;;9.00;;
18076;SDS011;9165;45.714;11.362;2023-04-24T05:27:34;11.40;;;8.77;;
18076;SDS011;9165;45.714;11.362;2023-04-24T05:30:00;10.67;;;8.47;;
18076;SDS011;9165;45.714;11.362;2023-04-24T05:32:27;11.70;;;8.30;;
18076;SDS011;9165;45.714;11.362;2023-04-24T05:34:54;12.77;;;8.47;;
18076;SDS011;9165;45.714;11.362;2023-04-24T05:37:22;10.93;;;8.57;;
18076;SDS011;9165;45.714;11.362;2023-04-24T05:39:48;12.73;;;8.07;;
18076;SDS011;9165;45.714;11.362;2023-04-24T05:42:15;13.60;;;8.90;;
18076;SDS011;9165;45.714;11.362;2023-04-24T05:44:42;12.17;;;8.53;;
18076;SDS011;9165;45.714;11.362;2023-04-24T05:47:08;9.93;;;8.33;;
18076;SDS011;9165;45.714;11.362;2023-04-24T05:49:35;11.90;;;7.53;;
18076;SDS011;9165;45.714;11.362;2023-04-24T05:52:01;10.97;;;7.73;;
18076;SDS011;9165;45.714;11.362;2023-04-24T05:54:30;10.23;;;7.13;;
18076;SDS011;9165;45.714;11.362;2023-04-24T05:56:57;10.63;;;7.37;;
18076;SDS011;9165;45.714;11.362;2023-04-24T05:59:24;10.80;;;7.00;;
18076;SDS011;9165;45.714;11.362;2023-04-24T06:01:50;9.77;;;7.30;;
18076;SDS011;9165;45.714;11.362;2023-04-24T06:04:17;13.17;;;7.23;;
18076;SDS011;9165;45.714;11.362;2023-04-24T06:06:44;8.80;;;6.67;;
18076;SDS011;9165;45.714;11.362;2023-04-24T06:09:15;10.13;;;6.93;;
18076;SDS011;9165;45.714;11.362;2023-04-24T06:11:44;7.43;;;6.10;;
18076;SDS011;9165;45.714;11.362;2023-04-24T06:14:11;14.30;;;6.03;;
18076;SDS011;9165;45.714;11.362;2023-04-24T06:16:37;10.07;;;6.00;;
18076;SDS011;9165;45.714;11.362;2023-04-24T06:19:04;11.87;;;6.10;;
18076;SDS011;9165;45.714;11.362;2023-04-24T06:21:30;4.27;;;3.13;;
18076;SDS011;9165;45.714;11.362;2023-04-24T06:23:59;2.33;;;1.83;;
18076;SDS011;9165;45.714;11.362;2023-04-24T06:26:26;2.57;;;0.87;;
18076;SDS011;9165;45.714;11.362;2023-04-24T06:28:55;0.53;;;0.50;;
18076;SDS011;9165;45.714;11.362;2023-04-24T06:31:21;0.23;;;0.23;;
18076;SDS011;9165;45.714;11.362;2023-04-24T06:33:48;0.77;;;0.60;;
18076;SDS011;9165;45.714;11.362;2023-04-24T06:36:14;0.20;;;0.20;;
18076;SDS011;9165;45.714;11.362;2023-04-24T06:38:41;0.83;;;0.50;;
18076;SDS011;9165;45.714;11.362;2023-04-24T06:41:07;0.50;;;0.50;;
18076;SDS011;9165;45.714;11.362;2023-04-24T06:43:34;0.30;;;0.30;;
18076;SDS011;9165;45.714;11.362;2023-04-24T06:46:02;0.63;;;0.50;;
18076;SDS011;9165;45.714;11.362;2023-04-24T06:48:29;0.30;;;0.30;;
18076;SDS011;9165;45.714;11.362;2023-04-24T06:50:56;0.37;;;0.37;;
18076;SDS011;9165;45.714;11.362;2023-04-24T06:53:22;0.73;;;0.57;;
18076;SDS011;9165;45.714;11.362;2023-04-24T06:55:50;3.03;;;0.43;;
18076;SDS011;9165;45.714;11.362;2023-04-24T06:58:17;0.40;;;0.40;;
18076;SDS011;9165;45.714;11.362;2023-04-24T07:00:44;9.53;;;1.23;;
18076;SDS011;9165;45.714;11.362;2023-04-24T07:03:12;0.27;;;0.27;;
18076;SDS011;9165;45.714;11.362;2023-04-24T07:05:38;0.30;;;0.30;;
18076;SDS011;9165;45.714;11.362;2023-04-24T07:08:06;0.20;;;0.20;;
18076;SDS011;9165;45.714;11.362;2023-04-24T07:10:36;0.20;;;0.20;;
18076;SDS011;9165;45.714;11.362;2023-04-24T07:13:03;0.10;;;0.10;;
18076;SDS011;9165;45.714;11.362;2023-04-24T07:15:29;0.20;;;0.20;;
18076;SDS011;9165;45.714;11.362;2023-04-24T07:17:57;0.53;;;0.20;;
18076;SDS011;9165;45.714;11.362;2023-04-24T07:20:25;0.20;;;0.20;;
18076;SDS011;9165;45.714;11.362;2023-04-24T07:22:52;0.47;;;0.30;;
18076;SDS011;9165;45.714;11.362;2023-04-24T07:25:19;2.50;;;1.00;;
18076;SDS011;9165;45.714;11.362;2023-04-24T07:27:45;0.50;;;0.50;;
18076;SDS011;9165;45.714;11.362;2023-04-24T07:30:13;0.83;;;0.80;;
18076;SDS011;9165;45.714;11.362;2023-04-24T07:32:40;0.47;;;0.47;;
18076;SDS011;9165;45.714;11.362;2023-04-24T07:35:06;0.40;;;0.40;;
18076;SDS011;9165;45.714;11.362;2023-04-24T07:37:36;0.70;;;0.43;;
18076;SDS011;9165;45.714;11.362;2023-04-24T07:40:03;0.30;;;0.30;;
18076;SDS011;9165;45.714;11.362;2023-04-24T07:42:30;0.60;;;0.60;;
18076;SDS011;9165;45.714;11.362;2023-04-24T07:44:56;0.33;;;0.33;;
18076;SDS011;9165;45.714;11.362;2023-04-24T07:47:24;0.43;;;0.40;;
18076;SDS011;9165;45.714;11.362;2023-04-24T07:49:51;0.30;;;0.30;;
18076;SDS011;9165;45.714;11.362;2023-04-24T07:52:17;0.73;;;0.50;;
18076;SDS011;9165;45.714;11.362;2023-04-24T07:54:45;0.60;;;0.50;;
18076;SDS011;9165;45.714;11.362;2023-04-24T07:57:12;0.60;;;0.60;;
18076;SDS011;9165;45.714;11.362;2023-04-24T07:59:39;1.23;;;0.67;;
18076;SDS011;9165;45.714;11.362;2023-04-24T08:02:05;1.20;;;0.67;;
18076;SDS011;9165;45.714;11.362;2023-04-24T08:04:32;0.70;;;0.70;;
18076;SDS011;9165;45.714;11.362;2023-04-24T08:06:58;0.80;;;0.80;;
18076;SDS011;9165;45.714;11.362;2023-04-24T08:09:25;0.60;;;0.60;;
18076;SDS011;9165;45.714;11.362;2023-04-24T08:11:53;2.20;;;0.70;;
18076;SDS011;9165;45.714;11.362;2023-04-24T08:14:19;3.37;;;0.97;;
18076;SDS011;9165;45.714;11.362;2023-04-24T08:16:46;0.47;;;0.40;;
18076;SDS011;9165;45.714;11.362;2023-04-24T08:19:12;1.90;;;1.80;;
18076;SDS011;9165;45.714;11.362;2023-04-24T08:21:39;0.60;;;0.60;;
18076;SDS011;9165;45.714;11.362;2023-04-24T08:24:05;0.40;;;0.40;;
18076;SDS011;9165;45.714;11.362;2023-04-24T08:26:33;1.17;;;0.80;;
18076;SDS011;9165;45.714;11.362;2023-04-24T08:29:01;0.80;;;0.80;;
18076;SDS011;9165;45.714;11.362;2023-04-24T08:31:28;1.17;;;1.00;;
18076;SDS011;9165;45.714;11.362;2023-04-24T08:33:54;0.80;;;0.80;;
18076;SDS011;9165;45.714;11.362;2023-04-24T08:36:21;0.67;;;0.57;;
18076;SDS011;9165;45.714;11.362;2023-04-24T08:38:47;1.13;;;0.40;;
18076;SDS011;9165;45.714;11.362;2023-04-24T08:41:14;0.93;;;0.83;;
18076;SDS011;9165;45.714;11.362;2023-04-24T08:43:41;0.57;;;0.43;;
18076;SDS011;9165;45.714;11.362;2023-04-24T08:46:10;0.50;;;0.47;;
18076;SDS011;9165;45.714;11.362;2023-04-24T08:48:37;0.60;;;0.40;;
18076;SDS011;9165;45.714;11.362;2023-04-24T08:51:04;0.63;;;0.63;;
18076;SDS011;9165;45.714;11.362;2023-04-24T08:53:32;3.97;;;1.30;;
18076;SDS011;9165;45.714;11.362;2023-04-24T08:55:59;0.50;;;0.50;;
18076;SDS011;9165;45.714;11.362;2023-04-24T08:58:27;0.60;;;0.60;;
18076;SDS011;9165;45.714;11.362;2023-04-24T09:00:54;0.93;;;0.90;;
18076;SDS011;9165;45.714;11.362;2023-04-24T09:03:22;0.70;;;0.67;;
18076;SDS011;9165;45.714;11.362;2023-04-24T09:05:49;2.30;;;0.80;;
18076;SDS011;9165;45.714;11.362;2023-04-24T09:08:16;8.70;;;6.93;;
18076;SDS011;9165;45.714;11.362;2023-04-24T09:10:43;4.40;;;1.63;;
18076;SDS011;9165;45.714;11.362;2023-04-24T09:13:10;0.90;;;0.90;;
18076;SDS011;9165;45.714;11.362;2023-04-24T09:15:37;1.20;;;1.10;;
18076;SDS011;9165;45.714;11.362;2023-04-24T09:18:04;1.90;;;1.70;;
18076;SDS011;9165;45.714;11.362;2023-04-24T09:20:32;4.00;;;2.00;;
18076;SDS011;9165;45.714;11.362;2023-04-24T09:23:01;1.10;;;0.90;;
18076;SDS011;9165;45.714;11.362;2023-04-24T09:25:31;2.33;;;1.07;;
18076;SDS011;9165;45.714;11.362;2023-04-24T09:28:00;0.80;;;0.80;;
18076;SDS011;9165;45.714;11.362;2023-04-24T09:30:26;1.90;;;0.93;;
18076;SDS011;9165;45.714;11.362;2023-04-24T09:35:37;1.10;;;1.00;;
18076;SDS011;9165;45.714;11.362;2023-04-24T09:38:06;1.87;;;0.93;;
18076;SDS011;9165;45.714;11.362;2023-04-24T09:40:34;1.10;;;1.07;;
18076;SDS011;9165;45.714;11.362;2023-04-24T09:43:01;0.77;;;0.77;;
18076;SDS011;9165;45.714;11.362;2023-04-24T09:45:28;2.33;;;1.43;;
18076;SDS011;9165;45.714;11.362;2023-04-24T09:47:55;0.87;;;0.87;;
18076;SDS011;9165;45.714;11.362;2023-04-24T09:50:22;1.00;;;0.90;;
18076;SDS011;9165;45.714;11.362;2023-04-24T09:52:58;2.77;;;1.33;;
18076;SDS011;9165;45.714;11.362;2023-04-24T09:55:26;0.77;;;0.77;;
18076;SDS011;9165;45.714;11.362;2023-04-24T09:57:53;1.03;;;0.97;;
18076;SDS011;9165;45.714;11.362;2023-04-24T10:00:23;3.07;;;1.10;;
18076;SDS011;9165;45.714;11.362;2023-04-24T10:02:53;1.10;;;1.00;;
18076;SDS011;9165;45.714;11.362;2023-04-24T10:05:22;2.60;;;1.00;;
18076;SDS011;9165;45.714;11.362;2023-04-24T10:07:50;30.57;;;15.60;;
18076;SDS011;9165;45.714;11.362;2023-04-24T10:10:18;2.17;;;1.37;;
18076;SDS011;9165;45.714;11.362;2023-04-24T10:12:44;1.40;;;1.30;;
18076;SDS011;9165;45.714;11.362;2023-04-24T10:15:11;3.53;;;1.53;;
18076;SDS011;9165;45.714;11.362;2023-04-24T10:17:38;1.07;;;1.00;;
18076;SDS011;9165;45.714;11.362;2023-04-24T10:20:05;1.70;;;1.10;;
18076;SDS011;9165;45.714;11.362;2023-04-24T10:22:33;1.80;;;1.40;;
18076;SDS011;9165;45.714;11.362;2023-04-24T10:25:00;1.10;;;1.00;;
18076;SDS011;9165;45.714;11.362;2023-04-24T10:27:28;1.33;;;1.23;;
18076;SDS011;9165;45.714;11.362;2023-04-24T10:29:56;1.13;;;1.03;;
18076;SDS011;9165;45.714;11.362;2023-04-24T10:32:23;1.40;;;1.30;;
18076;SDS011;9165;45.714;11.362;2023-04-24T10:34:50;1.30;;;1.20;;
18076;SDS011;9165;45.714;11.362;2023-04-24T10:37:16;1.13;;;1.03;;
18076;SDS011;9165;45.714;11.362;2023-04-24T10:39:43;1.03;;;1.03;;
18076;SDS011;9165;45.714;11.362;2023-04-24T10:42:14;1.90;;;1.60;;
18076;SDS011;9165;45.714;11.362;2023-04-24T10:44:42;1.60;;;1.40;;
18076;SDS011;9165;45.714;11.362;2023-04-24T10:47:12;1.47;;;1.30;;
18076;SDS011;9165;45.714;11.362;2023-04-24T10:49:39;1.23;;;1.13;;
18076;SDS011;9165;45.714;11.362;2023-04-24T10:52:06;2.73;;;1.37;;
18076;SDS011;9165;45.714;11.362;2023-04-24T10:54:36;1.60;;;1.50;;
18076;SDS011;9165;45.714;11.362;2023-04-24T10:59:50;5.87;;;1.80;;
18076;SDS011;9165;45.714;11.362;2023-04-24T11:02:17;2.90;;;1.80;;
18076;SDS011;9165;45.714;11.362;2023-04-24T11:04:44;1.90;;;1.80;;
18076;SDS011;9165;45.714;11.362;2023-04-24T11:07:11;3.27;;;1.63;;
18076;SDS011;9165;45.714;11.362;2023-04-24T11:09:38;2.33;;;1.90;;
18076;SDS011;9165;45.714;11.362;2023-04-24T11:12:05;2.50;;;1.70;;
18076;SDS011;9165;45.714;11.362;2023-04-24T11:17:28;1.57;;;1.47;;
18076;SDS011;9165;45.714;11.362;2023-04-24T11:19:59;4.70;;;2.20;;
18076;SDS011;9165;45.714;11.362;2023-04-24T11:22:26;6.70;;;1.80;;
18076;SDS011;9165;45.714;11.362;2023-04-24T11:24:56;3.73;;;2.23;;
18076;SDS011;9165;45.714;11.362;2023-04-24T11:27:22;1.60;;;1.50;;
18076;SDS011;9165;45.714;11.362;2023-04-24T11:29:51;1.60;;;1.50;;
18076;SDS011;9165;45.714;11.362;2023-04-24T11:32:26;2.50;;;1.63;;
18076;SDS011;9165;45.714;11.362;2023-04-24T11:34:54;2.03;;;1.83;;
18076;SDS011;9165;45.714;11.362;2023-04-24T11:37:22;2.23;;;1.90;;
18076;SDS011;9165;45.714;11.362;2023-04-24T11:39:50;5.10;;;2.17;;
18076;SDS011;9165;45.714;11.362;2023-04-24T11:42:17;3.07;;;1.83;;
18076;SDS011;9165;45.714;11.362;2023-04-24T11:44:44;2.90;;;1.83;;
18076;SDS011;9165;45.714;11.362;2023-04-24T11:47:12;1.93;;;1.73;;
18076;SDS011;9165;45.714;11.362;2023-04-24T11:49:39;1.87;;;1.67;;
18076;SDS011;9165;45.714;11.362;2023-04-24T11:52:07;1.47;;;1.37;;
18076;SDS011;9165;45.714;11.362;2023-04-24T11:54:33;1.87;;;1.70;;
18076;SDS011;9165;45.714;11.362;2023-04-24T11:57:03;1.50;;;1.40;;
18076;SDS011;9165;45.714;11.362;2023-04-24T11:59:30;1.20;;;1.03;;
18076;SDS011;9165;45.714;11.362;2023-04-24T12:02:01;1.70;;;1.20;;
18076;SDS011;9165;45.714;11.362;2023-04-24T12:04:37;2.20;;;1.50;;
18076;SDS011;9165;45.714;11.362;2023-04-24T12:07:04;1.63;;;1.40;;
18076;SDS011;9165;45.714;11.362;2023-04-24T12:09:41;1.97;;;1.53;;
18076;SDS011;9165;45.714;11.362;2023-04-24T12:12:08;2.93;;;1.77;;
18076;SDS011;9165;45.714;11.362;2023-04-24T12:14:41;1.40;;;1.30;;
18076;SDS011;9165;45.714;11.362;2023-04-24T12:17:08;2.13;;;1.60;;
18076;SDS011;9165;45.714;11.362;2023-04-24T12:19:35;2.23;;;1.40;;
18076;SDS011;9165;45.714;11.362;2023-04-24T12:22:02;8.23;;;1.67;;
18076;SDS011;9165;45.714;11.362;2023-04-24T12:24:30;1.77;;;1.50;;
18076;SDS011;9165;45.714;11.362;2023-04-24T12:26:58;1.70;;;1.60;;
18076;SDS011;9165;45.714;11.362;2023-04-24T12:29:26;1.30;;;1.20;;
18076;SDS011;9165;45.714;11.362;2023-04-24T12:31:53;1.60;;;1.20;;
18076;SDS011;9165;45.714;11.362;2023-04-24T12:34:20;1.87;;;1.13;;
18076;SDS011;9165;45.714;11.362;2023-04-24T12:36:47;2.00;;;1.27;;
18076;SDS011;9165;45.714;11.362;2023-04-24T12:39:14;1.90;;;1.40;;
18076;SDS011;9165;45.714;11.362;2023-04-24T12:41:49;1.93;;;1.70;;
18076;SDS011;9165;45.714;11.362;2023-04-24T12:44:17;2.07;;;1.70;;
18076;SDS011;9165;45.714;11.362;2023-04-24T12:46:44;3.80;;;1.60;;
18076;SDS011;9165;45.714;11.362;2023-04-24T12:49:11;2.23;;;1.60;;
18076;SDS011;9165;45.714;11.362;2023-04-24T12:51:37;2.50;;;1.70;;
18076;SDS011;9165;45.714;11.362;2023-04-24T12:54:04;2.37;;;1.60;;
18076;SDS011;9165;45.714;11.362;2023-04-24T12:56:32;2.47;;;1.70;;
18076;SDS011;9165;45.714;11.362;2023-04-24T12:58:58;1.47;;;1.37;;
18076;SDS011;9165;45.714;11.362;2023-04-24T13:01:26;2.43;;;2.00;;
18076;SDS011;9165;45.714;11.362;2023-04-24T13:03:53;1.97;;;1.77;;
18076;SDS011;9165;45.714;11.362;2023-04-24T13:06:20;2.80;;;1.60;;
18076;SDS011;9165;45.714;11.362;2023-04-24T13:08:47;2.35;;;1.88;;
18076;SDS011;9165;45.714;11.362;2023-04-24T13:11:14;3.85;;;1.73;;
18076;SDS011;9165;45.714;11.362;2023-04-24T13:13:40;2.25;;;2.05;;
18076;SDS011;9165;45.714;11.362;2023-04-24T13:16:07;3.97;;;2.05;;
18076;SDS011;9165;45.714;11.362;2023-04-24T13:18:35;2.60;;;2.40;;
18076;SDS011;9165;45.714;11.362;2023-04-24T13:21:02;2.75;;;2.10;;
18076;SDS011;9165;45.714;11.362;2023-04-24T13:23:28;2.55;;;1.90;;
18076;SDS011;9165;45.714;11.362;2023-04-24T13:25:55;2.13;;;1.88;;
18076;SDS011;9165;45.714;11.362;2023-04-24T13:28:23;2.70;;;2.50;;
18076;SDS011;9165;45.714;11.362;2023-04-24T13:30:50;2.53;;;2.33;;
18076;SDS011;9165;45.714;11.362;2023-04-24T13:33:16;2.25;;;2.05;;
18076;SDS011;9165;45.714;11.362;2023-04-24T13:35:44;5.85;;;2.42;;
18076;SDS011;9165;45.714;11.362;2023-04-24T13:38:11;4.35;;;2.35;;
18076;SDS011;9165;45.714;11.362;2023-04-24T13:40:37;2.40;;;2.13;;
18076;SDS011;9165;45.714;11.362;2023-04-24T13:43:04;2.58;;;2.30;;
18076;SDS011;9165;45.714;11.362;2023-04-24T13:45:33;3.50;;;2.93;;
18076;SDS011;9165;45.714;11.362;2023-04-24T13:48:00;6.63;;;2.97;;
18076;SDS011;9165;45.714;11.362;2023-04-24T13:50:28;3.10;;;2.80;;
18076;SDS011;9165;45.714;11.362;2023-04-24T13:52:56;2.90;;;2.60;;
18076;SDS011;9165;45.714;11.362;2023-04-24T13:55:25;3.00;;;2.57;;
18076;SDS011;9165;45.714;11.362;2023-04-24T13:57:51;3.27;;;2.87;;
18076;SDS011;9165;45.714;11.362;2023-04-24T14:00:20;3.20;;;2.90;;
18076;SDS011;9165;45.714;11.362;2023-04-24T14:02:47;2.88;;;2.45;;
18076;SDS011;9165;45.714;11.362;2023-04-24T14:05:13;3.90;;;2.45;;
18076;SDS011;9165;45.714;11.362;2023-04-24T14:07:40;4.50;;;2.72;;
18076;SDS011;9165;45.714;11.362;2023-04-24T14:10:08;3.00;;;2.70;;
18076;SDS011;9165;45.714;11.362;2023-04-24T14:12:35;3.47;;;2.75;;
18076;SDS011;9165;45.714;11.362;2023-04-24T14:15:02;3.10;;;2.80;;
18076;SDS011;9165;45.714;11.362;2023-04-24T14:17:30;3.30;;;3.00;;
18076;SDS011;9165;45.714;11.362;2023-04-24T14:19:56;2.97;;;2.67;;
18076;SDS011;9165;45.714;11.362;2023-04-24T14:22:25;3.25;;;2.75;;
18076;SDS011;9165;45.714;11.362;2023-04-24T14:24:51;4.03;;;2.90;;
18076;SDS011;9165;45.714;11.362;2023-04-24T14:27:19;4.05;;;2.58;;
18076;SDS011;9165;45.714;11.362;2023-04-24T14:29:46;3.20;;;2.40;;
18076;SDS011;9165;45.714;11.362;2023-04-24T14:32:12;2.60;;;2.40;;
18076;SDS011;9165;45.714;11.362;2023-04-24T14:34:40;3.65;;;3.22;;
18076;SDS011;9165;45.714;11.362;2023-04-24T14:37:06;2.90;;;2.70;;
18076;SDS011;9165;45.714;11.362;2023-04-24T14:39:33;4.20;;;2.92;;
18076;SDS011;9165;45.714;11.362;2023-04-24T14:41:59;4.28;;;2.65;;
18076;SDS011;9165;45.714;11.362;2023-04-24T14:44:28;5.05;;;2.72;;
18076;SDS011;9165;45.714;11.362;2023-04-24T14:46:54;3.47;;;2.90;;
18076;SDS011;9165;45.714;11.362;2023-04-24T14:49:21;4.67;;;2.90;;